createdAt,value
2019-03-03T18:10:35.305Z,978.36
2019-03-03T18:11:41.860Z,978.42
2019-03-03T18:12:48.805Z,978.40
2019-03-03T18:13:55.659Z,978.39
2019-03-03T18:15:02.533Z,978.29
2019-03-03T18:16:09.603Z,978.39
2019-03-03T18:17:16.600Z,978.30
2019-03-03T18:18:23.368Z,978.37
2019-03-03T18:19:30.324Z,978.35
2019-03-03T18:20:37.115Z,978.39
2019-03-03T18:21:43.852Z,978.38
2019-03-03T18:22:50.813Z,978.24
2019-03-03T18:23:57.754Z,978.39
2019-03-03T18:25:04.652Z,978.35
2019-03-03T18:26:11.514Z,978.20
2019-03-03T18:27:18.315Z,978.29
2019-03-03T18:28:25.148Z,978.28
2019-03-03T18:29:32.029Z,978.09
2019-03-03T18:30:38.796Z,978.22
2019-03-03T18:31:45.619Z,978.22
2019-03-03T18:32:52.560Z,978.23
2019-03-03T18:33:59.412Z,978.08
2019-03-03T18:35:06.311Z,978.10
2019-03-03T18:36:14.585Z,978.16
2019-03-03T18:37:20.124Z,978.16
2019-03-03T18:38:26.956Z,978.08
2019-03-03T18:39:34.033Z,978.08
2019-03-03T18:40:40.966Z,978.07
2019-03-03T18:41:48.375Z,977.98
2019-03-03T18:42:55.292Z,977.95
2019-03-03T18:44:02.333Z,977.96
2019-03-03T18:45:08.787Z,977.81
2019-03-03T18:46:15.863Z,977.82
2019-03-03T18:47:22.739Z,977.80
2019-03-03T18:48:29.499Z,977.68
2019-03-03T18:49:36.356Z,977.75
2019-03-03T18:50:43.124Z,977.77
2019-03-03T18:51:50.096Z,977.74
2019-03-03T18:52:57.088Z,977.74
2019-03-03T18:54:03.964Z,977.84
2019-03-03T18:55:11.514Z,977.90
2019-03-03T18:56:18.033Z,977.83
2019-03-03T18:57:24.962Z,977.84
2019-03-03T18:58:33.037Z,977.76
2019-03-03T18:59:38.892Z,977.79
2019-03-03T19:00:45.846Z,977.73
2019-03-03T19:01:52.819Z,977.80
2019-03-03T19:02:59.745Z,977.74
2019-03-03T19:04:06.457Z,977.77
2019-03-03T19:05:13.217Z,977.63
2019-03-03T19:06:20.292Z,977.68
2019-03-03T19:07:27.154Z,977.76
2019-03-03T19:08:34.036Z,977.76
2019-03-03T19:09:40.820Z,977.67
2019-03-03T19:10:47.851Z,977.68
2019-03-03T19:11:54.657Z,977.73
2019-03-03T19:13:01.516Z,977.66
2019-03-03T19:14:08.466Z,977.82
2019-03-03T19:15:15.302Z,977.81
2019-03-03T19:16:22.404Z,977.79
2019-03-03T19:17:29.298Z,977.71
2019-03-03T19:18:36.148Z,977.74
2019-03-03T19:19:44.757Z,977.61
2019-03-03T19:20:49.858Z,977.77
2019-03-03T19:21:56.636Z,977.73
2019-03-03T19:23:03.596Z,977.74
2019-03-03T19:24:10.387Z,977.64
2019-03-03T19:25:17.204Z,977.65
2019-03-03T19:26:24.132Z,977.50
2019-03-03T19:27:31.086Z,977.58
2019-03-03T19:28:37.757Z,977.52
2019-03-03T19:29:44.725Z,977.65
2019-03-03T19:30:51.545Z,977.70
2019-03-03T19:31:58.368Z,977.74
2019-03-03T19:33:05.419Z,977.58
2019-03-03T19:34:11.872Z,977.74
2019-03-03T19:35:18.694Z,977.69
2019-03-03T19:36:25.921Z,977.58
2019-03-03T19:37:33.417Z,977.60
2019-03-03T19:38:39.744Z,977.59
2019-03-03T19:39:46.629Z,977.66
2019-03-03T19:40:53.477Z,977.67
2019-03-03T19:42:00.441Z,977.61
2019-03-03T19:43:07.405Z,977.69
2019-03-03T19:44:14.196Z,977.69
2019-03-03T19:45:21.169Z,977.62
2019-03-03T19:46:27.917Z,977.52
2019-03-03T19:47:34.796Z,977.46
2019-03-03T19:48:42.204Z,977.40
2019-03-03T19:49:50.382Z,977.36
2019-03-03T19:50:55.497Z,977.25
2019-03-03T19:52:02.562Z,977.34
2019-03-03T19:53:09.502Z,977.44
2019-03-03T19:54:16.428Z,977.51
2019-03-03T19:55:23.411Z,977.53
2019-03-03T19:56:30.349Z,977.55
2019-03-03T19:57:37.291Z,977.49
2019-03-03T19:58:44.261Z,977.45
2019-03-03T19:59:51.157Z,977.32
2019-03-03T20:00:58.005Z,977.25
2019-03-03T20:02:04.882Z,977.27
2019-03-03T20:03:11.876Z,977.16
2019-03-03T20:04:19.029Z,977.20
2019-03-03T20:05:25.793Z,977.13
2019-03-03T20:06:32.840Z,977.10
2019-03-03T20:07:39.631Z,977.28
2019-03-03T20:08:46.473Z,977.33
2019-03-03T20:09:53.279Z,977.40
2019-03-03T20:11:00.261Z,977.56
2019-03-03T20:12:07.041Z,977.45
2019-03-03T20:13:15.863Z,977.50
2019-03-03T20:14:20.860Z,977.26
2019-03-03T20:15:27.717Z,977.14
2019-03-03T20:16:34.565Z,977.06
2019-03-03T20:17:41.528Z,977.13
2019-03-03T20:18:48.662Z,977.02
2019-03-03T20:19:55.486Z,976.99
2019-03-03T20:21:02.559Z,976.99
2019-03-03T20:22:09.421Z,977.00
2019-03-03T20:23:16.276Z,977.03
2019-03-03T20:24:23.154Z,977.03
2019-03-03T20:25:29.922Z,976.94
2019-03-03T20:26:36.791Z,977.05
2019-03-03T20:27:43.749Z,976.87
2019-03-03T20:28:50.844Z,976.92
2019-03-03T20:29:57.605Z,976.93
2019-03-03T20:31:04.484Z,976.93
2019-03-03T20:32:11.333Z,976.90
2019-03-03T20:33:18.395Z,976.86
2019-03-03T20:34:25.296Z,976.75
2019-03-03T20:35:33.569Z,976.85
2019-03-03T20:36:38.905Z,976.78
2019-03-03T20:37:45.756Z,976.82
2019-03-03T20:38:52.571Z,976.85
2019-03-03T20:39:59.416Z,976.82
2019-03-03T20:41:06.161Z,976.90
2019-03-03T20:42:13.036Z,976.79
2019-03-03T20:43:19.806Z,976.71
2019-03-03T20:44:26.620Z,976.72
2019-03-03T20:45:33.572Z,976.75
2019-03-03T20:46:40.505Z,976.63
2019-03-03T20:47:47.391Z,976.60
2019-03-03T20:48:54.226Z,976.71
2019-03-03T20:50:01.131Z,976.64
2019-03-03T20:51:08.101Z,976.54
2019-03-03T20:52:14.949Z,976.55
2019-03-03T20:53:21.754Z,976.45
2019-03-03T20:54:28.911Z,976.37
2019-03-03T20:55:35.335Z,976.29
2019-03-03T20:56:42.094Z,976.22
2019-03-03T20:57:49.085Z,976.28
2019-03-03T20:58:56.056Z,976.36
2019-03-03T21:00:03.148Z,976.27
2019-03-03T21:01:09.900Z,976.32
2019-03-03T21:02:17.069Z,976.38
2019-03-03T21:03:23.919Z,976.42
2019-03-03T21:04:30.703Z,976.37
2019-03-03T21:05:37.684Z,976.36
2019-03-03T21:06:44.419Z,976.42
2019-03-03T21:07:52.092Z,976.36
2019-03-03T21:08:58.067Z,976.50
2019-03-03T21:10:04.917Z,976.32
2019-03-03T21:11:11.795Z,976.45
2019-03-03T21:12:18.988Z,976.28
2019-03-03T21:13:25.937Z,976.31
2019-03-03T21:14:32.905Z,976.26
2019-03-03T21:15:40.096Z,976.28
2019-03-03T21:16:46.536Z,976.09
2019-03-03T21:17:53.321Z,975.96
2019-03-03T21:19:00.282Z,975.89
2019-03-03T21:20:07.248Z,975.90
2019-03-03T21:21:13.786Z,975.76
2019-03-03T21:22:20.685Z,975.68
2019-03-03T21:23:27.566Z,975.71
2019-03-03T21:24:34.422Z,975.72
2019-03-03T21:25:41.294Z,975.93
2019-03-03T21:26:48.317Z,975.90
2019-03-03T21:27:55.204Z,975.87
2019-03-03T21:29:02.081Z,975.87
2019-03-03T21:30:08.999Z,975.82
2019-03-03T21:31:16.103Z,975.84
2019-03-03T21:32:22.889Z,975.85
2019-03-03T21:33:29.680Z,975.76
2019-03-03T21:34:36.416Z,975.79
2019-03-03T21:35:43.299Z,975.79
2019-03-03T21:36:50.049Z,975.69
2019-03-03T21:37:58.898Z,975.62
2019-03-03T21:39:03.776Z,975.64
2019-03-03T21:40:10.574Z,975.67
2019-03-03T21:41:17.604Z,975.56
2019-03-03T21:42:24.491Z,975.46
2019-03-03T21:43:31.448Z,975.37
2019-03-03T21:44:38.334Z,975.32
2019-03-03T21:45:45.206Z,975.39
2019-03-03T21:46:51.985Z,975.33
2019-03-03T21:47:58.928Z,975.43
2019-03-03T21:49:05.715Z,975.31
2019-03-03T21:50:12.461Z,975.27
2019-03-03T21:51:19.609Z,975.32
2019-03-03T21:52:26.700Z,975.32
2019-03-03T21:53:33.591Z,975.23
2019-03-03T21:54:40.556Z,975.28
2019-03-03T21:55:47.694Z,975.14
2019-03-03T21:56:54.479Z,975.11
2019-03-03T21:58:01.350Z,975.10
2019-03-03T21:59:08.421Z,975.24
2019-03-03T22:00:15.154Z,975.14
2019-03-03T22:01:22.575Z,975.06
2019-03-03T22:02:28.919Z,975.09
2019-03-03T22:03:35.686Z,975.10
2019-03-03T22:04:42.481Z,975.11
2019-03-03T22:05:49.558Z,975.00
2019-03-03T22:06:56.068Z,974.99
2019-03-03T22:08:03.183Z,975.01
2019-03-03T22:09:10.615Z,974.92
2019-03-03T22:10:16.973Z,974.96
2019-03-03T22:11:23.988Z,974.95
2019-03-03T22:12:30.716Z,974.89
2019-03-03T22:13:37.724Z,974.84
2019-03-03T22:14:44.722Z,974.84
2019-03-03T22:15:51.608Z,974.85
2019-03-03T22:16:58.392Z,974.86
2019-03-03T22:18:05.185Z,974.92
2019-03-03T22:19:12.029Z,974.95
2019-03-03T22:20:18.987Z,974.85
2019-03-03T22:21:25.756Z,974.87
2019-03-03T22:22:32.543Z,974.72
2019-03-03T22:23:39.613Z,974.90
2019-03-03T22:24:46.466Z,974.79
2019-03-03T22:25:53.265Z,974.75
2019-03-03T22:27:00.058Z,974.65
2019-03-03T22:28:06.748Z,974.76
2019-03-03T22:29:13.632Z,974.75
2019-03-03T22:30:20.377Z,974.70
2019-03-03T22:31:27.284Z,974.71
2019-03-03T22:32:34.128Z,974.72
2019-03-03T22:33:41.018Z,974.63
2019-03-03T22:34:48.189Z,974.55
2019-03-03T22:35:55.064Z,974.40
2019-03-03T22:37:01.919Z,974.28
2019-03-03T22:38:08.786Z,974.37
2019-03-03T22:39:15.562Z,974.21
2019-03-03T22:40:22.317Z,974.22
2019-03-03T22:41:29.138Z,974.29
2019-03-03T22:42:35.958Z,974.32
2019-03-03T22:43:43.023Z,974.42
2019-03-03T22:44:49.880Z,974.34
2019-03-03T22:45:56.704Z,974.25
2019-03-03T22:47:03.520Z,974.30
2019-03-03T22:48:10.493Z,974.23
2019-03-03T22:49:17.364Z,974.15
2019-03-03T22:50:24.227Z,974.09
2019-03-03T22:51:31.115Z,974.01
2019-03-03T22:52:38.169Z,974.08
2019-03-03T22:53:45.147Z,974.08
2019-03-03T22:54:51.923Z,974.07
2019-03-03T22:55:58.919Z,974.00
2019-03-03T22:57:05.865Z,974.03
2019-03-03T22:58:12.713Z,973.98
2019-03-03T22:59:19.467Z,974.01
2019-03-03T23:00:26.273Z,974.02
2019-03-03T23:01:33.432Z,974.02
2019-03-03T23:02:40.493Z,973.93
2019-03-03T23:03:47.436Z,974.05
2019-03-03T23:04:54.331Z,974.03
2019-03-03T23:06:01.513Z,973.93
2019-03-03T23:07:08.765Z,973.93
2019-03-03T23:08:15.328Z,973.95
2019-03-03T23:09:22.083Z,973.79
2019-03-03T23:10:29.117Z,973.79
2019-03-03T23:12:40.869Z,973.82
2019-03-03T23:13:48.020Z,973.74
2019-03-03T23:14:54.678Z,973.75
2019-03-03T23:16:01.561Z,973.66
2019-03-03T23:18:14.332Z,973.69
2019-03-03T23:19:21.243Z,973.59
2019-03-03T23:20:28.180Z,973.59
2019-03-03T23:21:34.787Z,973.67
2019-03-03T23:22:41.660Z,973.66
2019-03-03T23:23:48.512Z,973.65
2019-03-03T23:24:55.378Z,973.66
2019-03-03T23:26:02.360Z,973.71
2019-03-03T23:27:09.217Z,973.63
2019-03-03T23:28:15.871Z,973.68
2019-03-03T23:29:23.157Z,973.82
2019-03-03T23:30:29.959Z,973.70
2019-03-03T23:31:37.001Z,973.86
2019-03-03T23:32:43.859Z,973.84
2019-03-03T23:33:50.728Z,973.72
2019-03-03T23:34:57.467Z,973.88
2019-03-03T23:36:04.359Z,973.90
2019-03-03T23:37:11.241Z,973.88
2019-03-03T23:38:18.185Z,973.83
2019-03-03T23:39:24.940Z,973.90
2019-03-03T23:40:31.708Z,973.95
2019-03-03T23:41:38.604Z,973.93
2019-03-03T23:42:45.573Z,973.98
2019-03-03T23:43:52.368Z,974.04
2019-03-03T23:44:59.212Z,974.02
2019-03-03T23:46:05.956Z,974.20
2019-03-03T23:47:12.856Z,974.33
2019-03-03T23:48:20.024Z,974.21
2019-03-03T23:49:26.465Z,974.12
2019-03-03T23:50:33.208Z,974.25
2019-03-03T23:51:40.083Z,974.27
2019-03-03T23:52:46.913Z,974.16
2019-03-03T23:53:53.697Z,974.15
2019-03-03T23:55:00.486Z,974.16
2019-03-03T23:56:07.657Z,974.18
2019-03-03T23:57:14.853Z,974.17
2019-03-03T23:59:28.779Z,974.02
